Time;durP1;ratioP1;P1;durP2;ratioP2;P2;SDS_P1;SDS_P2;PMS_P1;PMS_P2;Temp;Humidity;BMP_temperature;BMP_pressure;BME280_temperature;BME280_humidity;BME280_pressure;Samples;Min_cycle;Max_cycle;Signal;HPM_P1;HPM_P2
2024/01/08 00:00:28;;;;;;;26.33;20.07;;;;;;;8.94;93.37;91268.13;5063249;28;20174;-75
2024/01/08 00:02:53;;;;;;;29.20;20.10;;;;;;;8.97;93.40;91272.75;5056625;28;20225;-76
2024/01/08 00:05:18;;;;;;;25.67;20.60;;;;;;;9.04;93.75;91278.28;5068082;28;20178;-75
2024/01/08 00:07:44;;;;;;;22.47;17.73;;;;;;;9.01;93.78;91279.63;5051060;28;20225;-76
2024/01/08 00:10:10;;;;;;;22.10;17.90;;;;;;;9.17;93.96;91280.00;5048485;28;20187;-75
2024/01/08 00:12:35;;;;;;;21.27;18.57;;;;;;;9.17;93.82;91287.81;5046780;28;20296;-75
2024/01/08 00:15:00;;;;;;;19.27;17.07;;;;;;;9.07;94.06;91288.09;5047047;28;20186;-76
2024/01/08 00:17:26;;;;;;;21.00;17.33;;;;;;;9.08;93.82;91289.63;5036914;28;20213;-75
2024/01/08 00:19:51;;;;;;;17.17;15.57;;;;;;;9.17;94.03;91287.81;5046802;28;20255;-75
2024/01/08 00:22:16;;;;;;;17.30;15.60;;;;;;;8.85;94.66;91295.97;5048046;28;20226;-75
2024/01/08 00:24:42;;;;;;;14.97;13.47;;;;;;;9.00;94.33;91288.53;5046779;28;20221;-75
2024/01/08 00:27:07;;;;;;;16.37;14.73;;;;;;;8.95;94.41;91295.72;5041181;28;20249;-77
2024/01/08 00:29:32;;;;;;;15.73;14.13;;;;;;;9.00;94.90;91287.75;5037160;28;20213;-75
2024/01/08 00:31:58;;;;;;;15.57;14.23;;;;;;;8.99;95.10;91294.03;5081924;28;20241;-75
2024/01/08 00:34:27;;;;;;;15.00;13.80;;;;;;;8.97;94.76;91293.56;5051340;28;20182;-75
2024/01/08 00:36:52;;;;;;;13.70;12.50;;;;;;;9.02;95.19;91296.03;5047268;28;20252;-75
2024/01/08 00:39:17;;;;;;;14.03;12.67;;;;;;;8.71;95.27;91300.47;5066507;28;20197;-75
2024/01/08 00:41:43;;;;;;;13.03;11.97;;;;;;;8.94;95.05;91304.56;5064982;28;20197;-74
2024/01/08 00:44:08;;;;;;;13.67;12.57;;;;;;;8.92;95.15;91302.25;5063554;28;20336;-75
2024/01/08 00:46:33;;;;;;;13.33;12.07;;;;;;;8.91;95.56;91305.16;5070289;28;20174;-75
2024/01/08 00:48:59;;;;;;;11.47;10.67;;;;;;;8.31;93.10;91302.25;5064694;28;20588;-75
2024/01/08 00:51:24;;;;;;;11.13;10.47;;;;;;;8.45;92.69;91312.59;5067373;28;20212;-74
2024/01/08 00:53:49;;;;;;;11.30;10.57;;;;;;;8.65;93.02;91307.66;5052170;28;20178;-75
2024/01/08 00:56:15;;;;;;;10.93;10.23;;;;;;;8.78;93.44;91313.84;5051735;28;20174;-75
2024/01/08 00:58:43;;;;;;;11.20;10.50;;;;;;;8.91;93.63;91315.56;5068635;28;20221;-75
2024/01/08 01:01:09;;;;;;;11.20;10.53;;;;;;;8.82;94.19;91317.38;5064309;28;20253;-75
2024/01/08 01:03:35;;;;;;;10.23;9.63;;;;;;;8.77;93.99;91312.28;5043009;28;20222;-75
2024/01/08 01:06:01;;;;;;;10.03;9.43;;;;;;;8.49;94.13;91316.88;5055368;28;20194;-75
2024/01/08 01:08:26;;;;;;;10.13;9.57;;;;;;;8.67;94.47;91309.97;5038923;28;20797;-75
2024/01/08 01:10:51;;;;;;;9.63;9.20;;;;;;;8.58;94.10;91316.94;5047996;28;20654;-75
2024/01/08 01:13:17;;;;;;;9.63;8.93;;;;;;;8.57;94.20;91320.59;5040062;28;20233;-74
2024/01/08 01:15:42;;;;;;;8.50;7.90;;;;;;;8.44;92.90;91318.81;5037399;28;20895;-75
2024/01/08 01:18:08;;;;;;;9.63;9.17;;;;;;;8.56;92.80;91317.22;5044389;28;20226;-75
2024/01/08 01:20:33;;;;;;;10.20;9.70;;;;;;;8.52;93.04;91324.09;5047425;28;20222;-75
2024/01/08 01:22:58;;;;;;;10.50;9.93;;;;;;;8.24;92.92;91301.09;5035989;28;20211;-74
2024/01/08 01:25:23;;;;;;;11.30;10.10;;;;;;;8.37;92.84;91319.28;5037892;28;20183;-74
2024/01/08 01:27:49;;;;;;;10.30;9.77;;;;;;;8.24;100.00;91327.09;5044676;28;20250;-75
2024/01/08 01:30:14;;;;;;;9.73;9.23;;;;;;;8.29;100.00;91329.59;5048696;28;20185;-76
2024/01/08 01:32:40;;;;;;;10.33;9.83;;;;;;;8.15;100.00;91325.19;5061027;28;20294;-75
2024/01/08 01:35:06;;;;;;;11.33;10.67;;;;;;;8.08;100.00;91322.22;5069136;28;20258;-75
2024/01/08 01:37:31;;;;;;;10.23;9.67;;;;;;;8.04;100.00;91316.09;5064158;28;21637;-76
2024/01/08 01:39:57;;;;;;;10.77;9.83;;;;;;;8.12;100.00;91325.00;5064623;28;20181;-75
2024/01/08 01:42:22;;;;;;;11.10;10.40;;;;;;;8.16;100.00;91331.94;5061917;28;20285;-75
2024/01/08 01:44:47;;;;;;;9.77;9.27;;;;;;;8.14;100.00;91322.88;5073256;28;20186;-75
2024/01/08 01:47:13;;;;;;;10.93;10.13;;;;;;;8.28;100.00;91325.47;5072619;28;20250;-75
2024/01/08 01:49:39;;;;;;;10.77;10.17;;;;;;;8.24;100.00;91321.91;5072683;28;20189;-75
2024/01/08 01:52:08;;;;;;;10.83;10.23;;;;;;;7.96;100.00;91329.78;5069254;28;20233;-75
2024/01/08 01:54:34;;;;;;;9.83;8.90;;;;;;;7.66;100.00;91278.47;5058701;28;20177;-75
2024/01/08 01:57:01;;;;;;;9.67;9.07;;;;;;;7.96;100.00;91319.41;5058170;28;20226;-75
2024/01/08 01:59:27;;;;;;;10.70;10.13;;;;;;;7.93;100.00;91322.56;5061497;28;20182;-75
2024/01/08 02:01:54;;;;;;;10.97;10.27;;;;;;;7.92;100.00;91323.63;5064736;28;20241;-76
2024/01/08 02:04:22;;;;;;;11.77;10.93;;;;;;;7.64;100.00;91337.72;5065958;28;20200;-76
2024/01/08 02:06:48;;;;;;;12.57;11.57;;;;;;;7.48;100.00;91320.94;5062540;28;20225;-75
2024/01/08 02:09:13;;;;;;;13.20;11.80;;;;;;;7.46;100.00;91338.63;5063691;28;20182;-74
2024/01/08 02:11:39;;;;;;;14.20;13.10;;;;;;;7.48;100.00;91338.34;5059246;28;20222;-76
2024/01/08 02:14:05;;;;;;;13.83;12.73;;;;;;;7.47;100.00;91339.41;5071684;28;20176;-75
2024/01/08 02:16:30;;;;;;;12.80;12.00;;;;;;;7.39;100.00;91340.84;5054440;28;20215;-75
2024/01/08 02:18:55;;;;;;;12.70;11.70;;;;;;;7.52;100.00;91342.66;5064205;28;20205;-75
2024/01/08 02:21:21;;;;;;;14.17;12.87;;;;;;;7.65;100.00;91336.69;5068612;28;20251;-75
2024/01/08 02:23:46;;;;;;;13.07;12.07;;;;;;;7.60;100.00;91343.78;5072147;28;20221;-74
2024/01/08 02:26:13;;;;;;;12.50;11.57;;;;;;;7.46;100.00;91341.22;5066548;28;20202;-74
2024/01/08 02:28:39;;;;;;;12.67;11.67;;;;;;;7.59;100.00;91343.06;5062463;28;20226;-74
2024/01/08 02:31:04;;;;;;;12.10;11.30;;;;;;;7.40;100.00;91344.97;5064030;28;20204;-74
2024/01/08 02:33:29;;;;;;;12.53;11.73;;;;;;;7.47;100.00;91347.94;5053861;28;20282;-74
2024/01/08 02:35:57;;;;;;;13.07;12.07;;;;;;;7.38;100.00;91347.09;5062811;28;20219;-73
2024/01/08 02:38:22;;;;;;;12.37;11.47;;;;;;;7.48;100.00;91351.31;5068754;28;20245;-74
2024/01/08 02:40:47;;;;;;;10.63;10.03;;;;;;;7.31;100.00;91357.09;5061796;28;20194;-74
2024/01/08 02:43:13;;;;;;;9.67;9.27;;;;;;;7.46;100.00;91354.22;5080423;28;20836;-74
2024/01/08 02:45:38;;;;;;;9.87;9.43;;;;;;;7.34;100.00;91356.53;5070028;28;20215;-74
2024/01/08 02:48:04;;;;;;;9.60;9.10;;;;;;;7.34;100.00;91351.34;5060442;28;20218;-74
2024/01/08 02:50:29;;;;;;;9.33;8.93;;;;;;;7.44;100.00;91358.91;5065230;28;20260;-75
2024/01/08 02:52:54;;;;;;;9.50;8.93;;;;;;;7.50;100.00;91362.94;5068270;28;20288;-75
2024/01/08 02:55:20;;;;;;;8.70;8.30;;;;;;;7.36;100.00;91359.59;5061301;28;20177;-74
2024/01/08 02:57:45;;;;;;;10.17;9.77;;;;;;;7.53;100.00;91370.16;5070612;28;20236;-74
2024/01/08 03:00:11;;;;;;;8.60;8.20;;;;;;;7.20;100.00;91365.34;5064059;28;20185;-74
2024/01/08 03:02:38;;;;;;;8.97;8.57;;;;;;;7.36;100.00;91374.41;5060728;28;20214;-74
2024/01/08 03:05:04;;;;;;;8.93;8.53;;;;;;;7.49;100.00;91364.00;5059897;28;20189;-74
2024/01/08 03:07:29;;;;;;;8.43;8.13;;;;;;;7.64;100.00;91374.09;5062933;28;20217;-74
2024/01/08 03:09:57;;;;;;;9.20;8.50;;;;;;;7.55;100.00;91383.63;5073510;28;20192;-74
2024/01/08 03:12:23;;;;;;;10.37;9.87;;;;;;;7.51;100.00;91387.09;5064160;28;20418;-75
2024/01/08 03:14:48;;;;;;;8.20;7.90;;;;;;;7.54;100.00;91389.09;5069427;28;20211;-74
2024/01/08 03:17:14;;;;;;;10.03;9.63;;;;;;;7.47;100.00;91381.69;5062024;28;20288;-73
2024/01/08 03:19:39;;;;;;;9.33;8.93;;;;;;;7.35;100.00;91384.00;5072261;28;20195;-75
2024/01/08 03:22:04;;;;;;;10.47;9.83;;;;;;;7.30;100.00;91384.09;5073575;28;20241;-75
2024/01/08 03:24:30;;;;;;;9.93;9.53;;;;;;;7.23;100.00;91386.31;5058390;28;20197;-74
2024/01/08 03:26:55;;;;;;;9.63;9.03;;;;;;;7.08;100.00;91394.38;5066372;28;20274;-75
2024/01/08 03:29:22;;;;;;;9.93;9.47;;;;;;;7.18;100.00;91393.41;5077261;28;20174;-74
2024/01/08 03:31:47;;;;;;;9.00;8.63;;;;;;;7.17;100.00;91395.25;5061355;28;20304;-74
2024/01/08 03:34:14;;;;;;;9.27;8.87;;;;;;;7.06;100.00;91391.31;5068905;28;20187;-74
2024/01/08 03:36:47;;;;;;;9.37;8.97;;;;;;;6.93;100.00;91397.22;5068979;28;20198;-76
2024/01/08 03:39:13;;;;;;;9.00;8.60;;;;;;;7.11;100.00;91404.19;5062316;28;20249;-77
2024/01/08 03:41:42;;;;;;;9.83;9.33;;;;;;;7.08;100.00;91409.19;5061763;28;20181;-77
2024/01/08 03:44:08;;;;;;;9.97;9.47;;;;;;;7.04;100.00;91408.97;5049004;28;20185;-77
2024/01/08 03:46:34;;;;;;;9.77;9.27;;;;;;;7.03;100.00;91404.84;5050314;28;20202;-76
2024/01/08 03:49:00;;;;;;;9.27;8.77;;;;;;;7.03;100.00;91415.22;5066325;28;20192;-77
2024/01/08 03:51:26;;;;;;;9.97;9.57;;;;;;;7.12;100.00;91418.69;5062808;28;20182;-78
2024/01/08 03:53:53;;;;;;;9.03;8.60;;;;;;;7.00;100.00;91413.22;5048695;28;20220;-75
2024/01/08 03:56:18;;;;;;;10.10;9.67;;;;;;;6.87;100.00;91407.97;5046431;28;20221;-76
2024/01/08 03:58:43;;;;;;;9.83;9.33;;;;;;;7.06;100.00;91438.00;5045367;28;20242;-77
2024/01/08 04:01:09;;;;;;;9.67;9.17;;;;;;;7.26;100.00;91435.06;5046497;28;20197;-77
2024/01/08 04:03:34;;;;;;;9.70;9.20;;;;;;;6.96;100.00;91412.22;5079292;28;20233;-77
2024/01/08 04:05:59;;;;;;;11.10;10.50;;;;;;;7.16;100.00;91437.06;5069720;28;20190;-77
2024/01/08 04:08:25;;;;;;;9.67;9.17;;;;;;;7.23;100.00;91434.84;5062764;28;20225;-77
2024/01/08 04:10:50;;;;;;;9.73;9.33;;;;;;;7.15;100.00;91451.84;5051134;28;20205;-77
2024/01/08 04:13:15;;;;;;;8.83;8.43;;;;;;;7.02;100.00;91441.47;5049946;28;20242;-76
2024/01/08 04:15:41;;;;;;;9.43;8.93;;;;;;;7.05;100.00;91453.88;5052252;28;20176;-76
2024/01/08 04:18:07;;;;;;;9.63;9.23;;;;;;;7.11;100.00;91448.31;5051737;28;20249;-76
2024/01/08 04:20:32;;;;;;;10.50;9.90;;;;;;;7.15;100.00;91448.47;5046004;28;20253;-77
2024/01/08 04:22:58;;;;;;;9.83;9.33;;;;;;;6.80;100.00;91423.94;5042119;28;20250;-76
2024/01/08 04:25:23;;;;;;;9.57;9.07;;;;;;;7.14;100.00;91460.72;5073119;28;20213;-77
2024/01/08 04:27:48;;;;;;;9.37;8.90;;;;;;;7.20;100.00;91459.56;5063092;28;20224;-77
2024/01/08 04:30:14;;;;;;;9.87;9.43;;;;;;;7.14;100.00;91450.34;5072603;28;20201;-77
2024/01/08 04:32:39;;;;;;;11.50;10.90;;;;;;;7.13;100.00;91466.94;5066122;28;20238;-77
2024/01/08 04:35:06;;;;;;;11.27;10.60;;;;;;;7.17;100.00;91457.53;5062333;28;20184;-77
2024/01/08 04:37:31;;;;;;;10.90;10.30;;;;;;;6.99;100.00;91458.34;5070427;28;20221;-77
2024/01/08 04:39:56;;;;;;;9.83;9.43;;;;;;;7.00;100.00;91456.53;5072339;28;20189;-77
2024/01/08 04:42:22;;;;;;;10.53;10.03;;;;;;;7.01;100.00;91486.59;5073950;28;20221;-79
2024/01/08 04:44:47;;;;;;;11.77;11.07;;;;;;;6.80;100.00;91483.56;5072633;28;20182;-75
2024/01/08 04:47:13;;;;;;;12.43;11.67;;;;;;;6.88;100.00;91482.91;5064535;28;20229;-77
2024/01/08 04:49:40;;;;;;;12.73;11.87;;;;;;;6.68;100.00;91491.00;5051487;28;20232;-76
2024/01/08 04:52:06;;;;;;;14.37;13.37;;;;;;;6.47;100.00;91474.94;5054286;28;20214;-73
2024/01/08 04:54:31;;;;;;;15.00;13.90;;;;;;;6.65;100.00;91488.19;5076138;28;20176;-73
2024/01/08 04:56:57;;;;;;;14.60;13.60;;;;;;;6.68;100.00;91501.38;5067680;28;20994;-74
2024/01/08 04:59:23;;;;;;;16.60;15.10;;;;;;;6.60;100.00;91511.63;5070535;28;20196;-75
2024/01/08 05:01:49;;;;;;;15.43;14.23;;;;;;;6.71;100.00;91505.25;5063291;28;20225;-74
2024/01/08 05:04:15;;;;;;;14.67;13.47;;;;;;;6.51;100.00;91494.09;5047641;28;20186;-73
2024/01/08 05:06:40;;;;;;;14.23;13.07;;;;;;;6.45;100.00;91510.00;5045907;28;20178;-73
2024/01/08 05:09:06;;;;;;;14.20;13.00;;;;;;;6.47;100.00;91515.69;5044890;28;20187;-73
2024/01/08 05:11:31;;;;;;;14.77;13.23;;;;;;;6.41;100.00;91517.56;5042574;28;20186;-73
2024/01/08 05:13:56;;;;;;;13.97;12.87;;;;;;;6.36;100.00;91522.03;5049353;28;20197;-76
2024/01/08 05:16:22;;;;;;;14.40;13.10;;;;;;;6.19;100.00;91511.38;5044112;28;21112;-77
2024/01/08 05:18:47;;;;;;;14.23;13.03;;;;;;;6.28;100.00;91533.03;5073378;28;20217;-74
2024/01/08 05:21:14;;;;;;;13.90;12.90;;;;;;;6.37;100.00;91539.13;5043536;28;20222;-74
2024/01/08 05:23:39;;;;;;;13.33;12.43;;;;;;;6.24;100.00;91550.94;5039000;28;20242;-74
2024/01/08 05:26:04;;;;;;;12.93;11.93;;;;;;;6.01;100.00;91546.56;5049472;28;20182;-71
2024/01/08 05:28:30;;;;;;;11.83;11.23;;;;;;;6.04;100.00;91556.38;5049473;28;20242;-72
2024/01/08 05:30:56;;;;;;;11.63;10.73;;;;;;;5.89;100.00;91540.22;5048680;28;20178;-73
2024/01/08 05:33:22;;;;;;;11.80;11.10;;;;;;;5.97;100.00;91560.34;5041240;28;20233;-74
2024/01/08 05:35:47;;;;;;;12.43;11.83;;;;;;;5.80;100.00;91570.34;5041150;28;20221;-72
2024/01/08 05:38:13;;;;;;;11.53;10.93;;;;;;;5.64;100.00;91553.41;5044962;28;20225;-73
2024/01/08 05:40:39;;;;;;;12.70;11.73;;;;;;;5.58;100.00;91562.25;5049215;28;20198;-73
2024/01/08 05:43:04;;;;;;;12.23;11.57;;;;;;;5.67;100.00;91579.53;5057536;28;20218;-75
2024/01/08 05:45:32;;;;;;;11.40;10.70;;;;;;;5.74;100.00;91579.19;5049089;28;20183;-75
2024/01/08 05:47:58;;;;;;;11.83;11.23;;;;;;;5.69;100.00;91589.59;5039500;28;20242;-74
2024/01/08 05:50:27;;;;;;;10.70;10.20;;;;;;;5.68;100.00;91582.88;5048358;28;20245;-74
2024/01/08 05:52:54;;;;;;;11.00;10.40;;;;;;;5.57;100.00;91587.38;5049136;28;20287;-74
2024/01/08 05:55:20;;;;;;;11.50;10.80;;;;;;;5.54;100.00;91592.34;5046555;28;20212;-74
2024/01/08 05:57:45;;;;;;;11.93;11.23;;;;;;;5.37;100.00;91597.16;5045376;28;20229;-74
2024/01/08 06:00:12;;;;;;;11.23;10.53;;;;;;;5.42;100.00;91597.88;5039846;28;20264;-74
2024/01/08 06:02:37;;;;;;;11.13;10.53;;;;;;;5.26;100.00;91600.84;5058136;28;20251;-75
2024/01/08 06:05:03;;;;;;;11.97;11.37;;;;;;;5.30;100.00;91609.59;5066696;28;20181;-74
2024/01/08 06:07:28;;;;;;;14.73;13.87;;;;;;;5.30;100.00;91618.16;5069700;28;20853;-74
2024/01/08 06:09:53;;;;;;;12.87;12.03;;;;;;;5.22;100.00;91610.19;5061537;28;20223;-74
2024/01/08 06:12:19;;;;;;;13.40;12.60;;;;;;;5.32;100.00;91617.88;5056875;28;20252;-74
2024/01/08 06:14:44;;;;;;;12.60;11.90;;;;;;;5.20;100.00;91622.63;5047111;28;20182;-71
2024/01/08 06:17:10;;;;;;;12.97;12.17;;;;;;;5.12;100.00;91618.78;5044738;28;20225;-73
2024/01/08 06:19:36;;;;;;;13.37;12.57;;;;;;;4.85;100.00;91621.03;5047040;28;20181;-73
2024/01/08 06:22:02;;;;;;;12.73;12.00;;;;;;;4.93;100.00;91634.16;5043834;28;20237;-72
2024/01/08 06:24:28;;;;;;;13.53;12.73;;;;;;;4.84;100.00;91640.94;5067744;28;20189;-72
2024/01/08 06:26:53;;;;;;;13.80;12.90;;;;;;;4.76;100.00;91653.69;5067802;28;20220;-72
2024/01/08 06:29:19;;;;;;;12.90;12.10;;;;;;;4.65;100.00;91657.34;5070522;28;20177;-72
2024/01/08 06:31:44;;;;;;;13.13;12.27;;;;;;;4.64;100.00;91653.97;5074308;28;20268;-73
2024/01/08 06:34:10;;;;;;;12.37;11.57;;;;;;;4.66;100.00;91664.03;5049125;28;20173;-73
2024/01/08 06:36:35;;;;;;;13.03;12.23;;;;;;;4.62;100.00;91657.88;5049187;28;20194;-74
2024/01/08 06:39:01;;;;;;;12.87;11.97;;;;;;;4.81;100.00;91667.34;5049232;28;20228;-72
2024/01/08 06:41:26;;;;;;;13.60;12.73;;;;;;;4.57;100.00;91676.75;5048591;28;20213;-71
2024/01/08 06:43:52;;;;;;;12.50;11.60;;;;;;;4.54;100.00;91674.72;5043619;28;20193;-73
2024/01/08 06:46:18;;;;;;;12.93;12.10;;;;;;;4.68;100.00;91677.50;5049014;28;20186;-72
2024/01/08 06:48:43;;;;;;;12.90;11.90;;;;;;;4.67;100.00;91687.03;5061546;28;20240;-75
2024/01/08 06:51:11;;;;;;;12.80;12.03;;;;;;;4.74;100.00;91687.53;5068884;28;20208;-76
2024/01/08 06:53:36;;;;;;;12.57;11.67;;;;;;;4.69;100.00;91695.31;5061748;28;20301;-76
2024/01/08 06:56:02;;;;;;;13.00;12.10;;;;;;;4.55;100.00;91704.66;5065004;28;20189;-74
2024/01/08 06:58:27;;;;;;;12.83;12.13;;;;;;;4.49;100.00;91700.56;5066202;28;20220;-75
2024/01/08 07:00:53;;;;;;;12.53;11.73;;;;;;;4.60;100.00;91707.25;5060723;28;20240;-76
2024/01/08 07:03:18;;;;;;;12.90;12.00;;;;;;;4.66;100.00;91716.53;5061106;28;20217;-77
2024/01/08 07:05:43;;;;;;;13.80;12.80;;;;;;;4.50;100.00;91702.09;5062008;28;20185;-75
2024/01/08 07:08:09;;;;;;;14.10;13.00;;;;;;;4.57;100.00;91720.69;5064323;28;20291;-74
2024/01/08 07:10:35;;;;;;;14.47;13.23;;;;;;;4.48;100.00;91703.41;5063340;28;20344;-76
2024/01/08 07:13:00;;;;;;;14.40;13.47;;;;;;;4.46;100.00;91741.66;5072007;28;20218;-76
2024/01/08 07:15:35;;;;;;;14.73;13.63;;;;;;;4.52;100.00;91740.59;5066015;28;20188;-77
2024/01/08 07:18:00;;;;;;;13.93;12.87;;;;;;;4.50;100.00;91733.09;5057510;28;20232;-76
2024/01/08 07:20:26;;;;;;;14.07;13.10;;;;;;;4.55;100.00;91746.03;5069653;28;20262;-76
2024/01/08 07:22:51;;;;;;;13.47;12.57;;;;;;;4.38;100.00;91745.56;5066598;28;20240;-77
2024/01/08 07:25:16;;;;;;;13.53;12.43;;;;;;;4.40;100.00;91747.88;5060841;28;20212;-76
2024/01/08 07:27:42;;;;;;;13.97;13.03;;;;;;;4.59;100.00;91765.13;5064717;28;20236;-76
2024/01/08 07:30:09;;;;;;;13.17;12.00;;;;;;;4.74;100.00;91765.09;5068664;28;20189;-76
2024/01/08 07:32:35;;;;;;;12.30;11.50;;;;;;;4.71;100.00;91770.00;5055776;28;20231;-77
2024/01/08 07:35:02;;;;;;;12.73;11.93;;;;;;;4.51;100.00;91778.56;5068468;28;20209;-76
2024/01/08 07:37:27;;;;;;;13.17;12.37;;;;;;;4.57;100.00;91782.72;5055962;28;20238;-76
2024/01/08 07:39:52;;;;;;;13.50;12.63;;;;;;;4.26;100.00;91764.94;5063355;28;20211;-77
2024/01/08 07:42:18;;;;;;;13.20;12.30;;;;;;;4.40;100.00;91804.72;5060849;28;20558;-78
2024/01/08 07:44:43;;;;;;;13.50;12.50;;;;;;;4.25;100.00;91802.91;5045988;28;20190;-76
2024/01/08 07:47:08;;;;;;;13.50;12.60;;;;;;;4.33;100.00;91799.81;5043803;28;20243;-77
2024/01/08 07:49:33;;;;;;;11.87;11.17;;;;;;;4.47;100.00;91805.19;5046376;28;20190;-76
2024/01/08 07:51:59;;;;;;;11.57;10.97;;;;;;;4.61;100.00;91807.00;5043078;28;20256;-77
2024/01/08 07:54:24;;;;;;;11.57;10.60;;;;;;;4.33;100.00;91814.53;5047637;28;20681;-77
2024/01/08 07:56:49;;;;;;;12.50;11.60;;;;;;;4.19;100.00;91816.88;5049562;28;20222;-77
2024/01/08 07:59:15;;;;;;;13.73;12.73;;;;;;;4.05;100.00;91808.09;5044113;28;20297;-76
2024/01/08 08:01:40;;;;;;;12.13;11.33;;;;;;;3.87;100.00;91825.88;5053834;28;20190;-76
2024/01/08 08:04:06;;;;;;;11.30;10.60;;;;;;;3.89;100.00;91827.16;5073141;28;20205;-77
2024/01/08 08:06:31;;;;;;;11.93;11.23;;;;;;;3.93;100.00;91835.19;5068604;28;20249;-76
2024/01/08 08:08:56;;;;;;;11.13;10.50;;;;;;;3.84;100.00;91827.19;5044835;28;20198;-77
2024/01/08 08:11:22;;;;;;;12.47;11.67;;;;;;;3.83;100.00;91822.28;5052901;28;20200;-76
2024/01/08 08:13:47;;;;;;;11.40;10.70;;;;;;;3.91;100.00;91845.78;5061111;28;20277;-80
2024/01/08 08:16:13;;;;;;;13.70;12.80;;;;;;;3.58;100.00;91856.53;5066330;28;20216;-79
2024/01/08 08:18:39;;;;;;;12.90;12.07;;;;;;;3.55;100.00;91831.25;5072108;28;20222;-78
2024/01/08 08:21:04;;;;;;;12.33;11.47;;;;;;;3.58;100.00;91841.06;5069005;28;20214;-77
2024/01/08 08:23:31;;;;;;;11.77;11.03;;;;;;;3.79;100.00;91860.72;5071417;28;20209;-78
2024/01/08 08:25:56;;;;;;;12.80;12.00;;;;;;;3.78;100.00;91859.19;5070899;28;20192;-78
2024/01/08 08:28:22;;;;;;;12.47;11.57;;;;;;;4.16;100.00;91876.00;5072255;28;20221;-79
2024/01/08 08:30:47;;;;;;;11.53;10.80;;;;;;;4.03;100.00;91848.88;5072006;28;20177;-78
2024/01/08 08:33:12;;;;;;;12.23;11.23;;;;;;;4.11;100.00;91874.19;5072286;28;20214;-78
2024/01/08 08:35:38;;;;;;;12.97;12.00;;;;;;;4.19;100.00;91867.72;5072139;28;20185;-76
2024/01/08 08:38:04;;;;;;;14.07;12.97;;;;;;;4.11;100.00;91878.59;5071399;28;20240;-77
2024/01/08 08:40:29;;;;;;;13.37;12.23;;;;;;;3.91;100.00;91881.91;5068490;28;20189;-76
2024/01/08 08:42:54;;;;;;;12.20;11.27;;;;;;;4.00;100.00;91884.78;5056604;28;20951;-77
2024/01/08 08:45:20;;;;;;;12.60;11.70;;;;;;;3.73;100.00;91860.97;5047464;28;20182;-77
2024/01/08 08:47:45;;;;;;;12.53;11.83;;;;;;;3.85;100.00;91888.09;5051720;28;20240;-76
2024/01/08 08:50:12;;;;;;;13.10;12.20;;;;;;;3.94;100.00;91889.16;5050997;28;20186;-76
2024/01/08 08:52:39;;;;;;;11.90;11.20;;;;;;;3.85;100.00;91897.66;5047077;28;20242;-77
2024/01/08 08:55:04;;;;;;;12.07;11.27;;;;;;;3.74;100.00;91901.22;5044566;28;20185;-76
2024/01/08 08:57:30;;;;;;;12.80;12.00;;;;;;;3.85;100.00;91895.84;5042989;28;20215;-75
2024/01/08 08:59:55;;;;;;;11.90;11.00;;;;;;;4.09;100.00;91907.25;5048227;28;20183;-76
2024/01/08 09:02:21;;;;;;;12.63;11.93;;;;;;;3.78;100.00;91874.69;5049677;28;20221;-76
2024/01/08 09:04:47;;;;;;;11.33;10.73;;;;;;;3.86;100.00;91889.63;5048173;28;20185;-78
2024/01/08 09:07:12;;;;;;;11.47;10.77;;;;;;;4.12;100.00;91895.63;5046511;28;20226;-80
2024/01/08 09:09:38;;;;;;;12.97;12.07;;;;;;;3.79;100.00;91860.72;5051439;28;20209;-78
2024/01/08 09:12:03;;;;;;;12.53;11.93;;;;;;;3.93;100.00;91869.53;5051716;28;20230;-79
2024/01/08 09:14:29;;;;;;;12.10;11.40;;;;;;;4.24;100.00;91927.94;5048382;28;20836;-79
2024/01/08 09:16:54;;;;;;;11.03;10.47;;;;;;;4.46;100.00;91912.97;5042781;28;20230;-79
2024/01/08 09:19:19;;;;;;;10.67;10.07;;;;;;;4.43;100.00;91913.50;5050438;28;20253;-79
2024/01/08 09:21:48;;;;;;;11.53;10.93;;;;;;;4.34;100.00;91922.00;5049861;28;20237;-79
2024/01/08 09:24:13;;;;;;;10.87;10.27;;;;;;;4.25;100.00;91920.97;5045575;28;20190;-79
2024/01/08 09:26:39;;;;;;;12.13;11.33;;;;;;;4.42;100.00;91922.25;5052863;28;20265;-79
2024/01/08 09:29:05;;;;;;;12.00;11.30;;;;;;;4.72;100.00;91917.09;5071008;28;20643;-79
2024/01/08 09:31:31;;;;;;;11.50;10.90;;;;;;;4.45;100.00;91898.50;5064306;28;20183;-78
2024/01/08 09:33:56;;;;;;;12.50;11.80;;;;;;;4.40;100.00;91895.94;5061392;28;20217;-80
2024/01/08 09:36:22;;;;;;;11.20;10.60;;;;;;;4.52;100.00;91914.53;5059380;28;20272;-79
2024/01/08 09:38:47;;;;;;;12.23;11.63;;;;;;;4.60;100.00;91918.41;5062783;28;20678;-79
2024/01/08 09:41:13;;;;;;;12.43;11.57;;;;;;;4.58;100.00;91920.44;5086870;28;20215;-79
2024/01/08 09:43:39;;;;;;;12.13;11.23;;;;;;;4.41;100.00;91910.38;5061604;28;20214;-79
2024/01/08 09:46:09;;;;;;;11.13;10.27;;;;;;;4.39;100.00;91925.34;5070265;28;20201;-79
2024/01/08 09:48:35;;;;;;;11.83;11.03;;;;;;;4.47;100.00;91921.47;5050329;28;20317;-79
2024/01/08 09:51:02;;;;;;;12.67;11.90;;;;;;;4.45;100.00;91931.31;5048756;28;20192;-79
2024/01/08 09:53:28;;;;;;;13.60;12.57;;;;;;;4.37;100.00;91919.66;5043624;28;20224;-79
2024/01/08 09:55:54;;;;;;;13.23;12.43;;;;;;;4.42;100.00;91940.34;5047711;28;20880;-79
2024/01/08 09:58:19;;;;;;;12.50;11.80;;;;;;;4.60;100.00;91931.31;5045292;28;20257;-79
2024/01/08 10:00:44;;;;;;;12.60;12.00;;;;;;;4.58;100.00;91923.81;5050765;28;20185;-79
2024/01/08 10:03:11;;;;;;;12.27;11.57;;;;;;;4.34;100.00;91938.28;5071233;28;20277;-78
2024/01/08 10:05:38;;;;;;;12.00;11.27;;;;;;;4.31;100.00;91912.19;5059461;28;20305;-78
2024/01/08 10:08:03;;;;;;;11.87;11.07;;;;;;;4.62;100.00;91922.25;5045532;28;20221;-79
2024/01/08 10:10:29;;;;;;;10.60;9.97;;;;;;;4.40;98.49;91932.09;5045319;28;20284;-79
2024/01/08 10:12:55;;;;;;;13.43;12.63;;;;;;;4.79;98.90;91930.53;5039517;28;20222;-79
2024/01/08 10:15:22;;;;;;;11.13;10.43;;;;;;;4.70;98.40;91929.50;5050498;28;20216;-79
2024/01/08 10:17:48;;;;;;;11.00;10.50;;;;;;;4.59;99.36;91930.53;5043654;28;20218;-79
2024/01/08 10:20:15;;;;;;;11.97;11.17;;;;;;;4.68;97.62;91930.81;5040411;28;20253;-80
2024/01/08 10:22:41;;;;;;;13.47;12.47;;;;;;;4.11;99.08;91922.50;5049583;28;20245;-80
2024/01/08 10:25:07;;;;;;;11.57;10.97;;;;;;;4.20;99.21;91934.63;5049029;28;20182;-79
2024/01/08 10:27:33;;;;;;;10.87;10.27;;;;;;;4.11;99.35;91918.09;5047702;28;20232;-78
2024/01/08 10:29:58;;;;;;;11.93;11.13;;;;;;;4.02;99.18;91921.44;5048545;28;20188;-79
2024/01/08 10:32:24;;;;;;;12.07;11.37;;;;;;;3.98;100.00;91918.59;5041960;28;20218;-78
2024/01/08 10:34:49;;;;;;;11.10;10.50;;;;;;;4.18;100.00;91923.81;5047419;28;20190;-78
2024/01/08 10:37:15;;;;;;;12.13;11.37;;;;;;;3.78;100.00;91918.56;5048483;28;20291;-79
2024/01/08 10:39:42;;;;;;;10.30;9.70;;;;;;;3.88;100.00;91908.25;5049116;28;20186;-79
2024/01/08 10:42:09;;;;;;;12.47;11.73;;;;;;;3.87;100.00;91921.41;5059658;28;20250;-77
2024/01/08 10:44:34;;;;;;;12.03;11.13;;;;;;;3.99;98.80;91911.63;5058357;28;20178;-79
2024/01/08 10:47:06;;;;;;;11.13;10.53;;;;;;;4.07;98.30;91929.97;5058778;28;20272;-79
2024/01/08 10:49:33;;;;;;;12.57;11.87;;;;;;;4.30;99.35;91918.38;5037229;28;20230;-81
2024/01/08 10:52:00;;;;;;;13.20;12.43;;;;;;;4.27;99.61;91935.16;5044318;28;20272;-81
2024/01/08 10:54:45;;;;;;;11.47;10.77;;;;;;;4.32;98.71;91940.34;5058868;28;20201;-80
2024/01/08 10:57:13;;;;;;;11.53;10.93;;;;;;;3.74;97.68;91909.75;5056616;28;20240;-81
2024/01/08 10:59:41;;;;;;;10.17;9.57;;;;;;;4.03;98.11;91920.41;5061604;28;20185;-81
2024/01/08 11:02:12;;;;;;;12.23;11.43;;;;;;;4.30;98.21;91920.97;5066821;28;20226;-81
2024/01/08 11:04:38;;;;;;;11.77;11.07;;;;;;;4.07;98.95;91934.34;5064729;28;20189;-81
2024/01/08 11:07:05;;;;;;;12.90;12.00;;;;;;;4.10;98.84;91924.31;5069053;28;20309;-81
2024/01/08 11:09:30;;;;;;;12.73;11.93;;;;;;;4.26;98.09;91948.34;5067613;28;20180;-81
2024/01/08 11:11:56;;;;;;;11.97;11.20;;;;;;;4.72;98.25;91945.53;5078648;28;20225;-81
2024/01/08 11:14:23;;;;;;;11.10;10.50;;;;;;;4.32;97.42;91958.44;5066699;28;20209;-81